Time;durP1;ratioP1;P1;durP2;ratioP2;P2;SDS_P1;SDS_P2;PMS_P1;PMS_P2;Temp;Humidity;BMP_temperature;BMP_pressure;BME280_temperature;BME280_humidity;BME280_pressure;Samples;Min_cycle;Max_cycle;Signal;HPM_P1;HPM_P2
2021/12/13 00:02:56;;;;;;;30.08;19.10;;;;;;;3.19;100.00;99164.03;10470139;28;20108;-80
2021/12/13 00:08:05;;;;;;;26.33;19.05;;;;;;;3.22;100.00;99168.34;10489858;28;20052;-81
2021/12/13 00:13:15;;;;;;;25.65;18.48;;;;;;;3.24;100.00;99164.63;10488869;28;20072;-84
2021/12/13 00:18:22;;;;;;;30.15;19.75;;;;;;;3.27;100.00;99155.56;10481153;28;20528;-83
2021/12/13 00:23:28;;;;;;;30.30;18.20;;;;;;;3.29;100.00;99153.69;10492862;28;20124;-81
2021/12/13 00:28:37;;;;;;;43.92;19.23;;;;;;;3.31;100.00;99162.44;10493186;28;20217;-81
2021/12/13 00:33:55;;;;;;;53.00;20.35;;;;;;;3.34;100.00;99167.56;10474823;28;20553;-82
2021/12/13 00:39:05;;;;;;;57.75;19.27;;;;;;;3.35;100.00;99163.09;10485188;28;20048;-81
2021/12/13 00:44:13;;;;;;;280.52;25.42;;;;;;;3.36;100.00;99168.31;10493189;28;20055;-85
2021/12/13 00:49:20;;;;;;;67.45;21.95;;;;;;;3.39;100.00;99161.94;10507669;28;20049;-84
2021/12/13 00:54:26;;;;;;;48.03;22.08;;;;;;;3.37;100.00;99162.03;10463573;28;20072;-84
2021/12/13 00:59:34;;;;;;;36.42;20.73;;;;;;;3.38;100.00;99179.72;10477544;28;20115;-85
2021/12/13 01:05:01;;;;;;;49.95;21.23;;;;;;;3.42;100.00;99179.53;10483861;28;20455;-84
2021/12/13 01:10:43;;;;;;;47.30;21.27;;;;;;;3.41;100.00;99188.47;10485664;28;20045;-81
2021/12/13 01:15:54;;;;;;;43.58;21.88;;;;;;;3.42;100.00;99196.38;10444504;28;20082;-80
2021/12/13 01:21:08;;;;;;;44.22;21.80;;;;;;;3.44;100.00;99189.13;10504131;28;20041;-83
2021/12/13 01:31:34;;;;;;;260.23;25.48;;;;;;;3.47;100.00;99204.94;10458862;28;20052;-82
2021/12/13 01:36:46;;;;;;;46.05;22.08;;;;;;;3.49;100.00;99192.38;10478156;28;20165;-82
2021/12/13 01:41:53;;;;;;;59.50;24.38;;;;;;;3.52;100.00;99201.97;10482536;28;20378;-80
2021/12/13 01:47:00;;;;;;;71.40;23.95;;;;;;;3.55;100.00;99204.47;10484810;28;20040;-81
2021/12/13 01:52:16;;;;;;;116.30;25.10;;;;;;;3.59;100.00;99208.63;10480796;28;20045;-79
2021/12/13 01:57:26;;;;;;;88.85;25.33;;;;;;;3.63;100.00;99207.47;10480040;28;20539;-80
2021/12/13 02:02:34;;;;;;;410.15;30.17;;;;;;;3.66;100.00;99209.97;10476967;28;20041;-80
2021/12/13 02:07:43;;;;;;;621.75;34.55;;;;;;;3.68;100.00;99202.72;10477371;28;20053;-80
2021/12/13 02:12:55;;;;;;;645.15;36.85;;;;;;;3.70;100.00;99198.13;10457035;28;20094;-78
2021/12/13 02:18:00;;;;;;;;;;;;;;;3.77;100.00;99208.41;10459503;28;20044;-78
2021/12/13 02:23:06;;;;;;;214.85;27.27;;;;;;;3.80;100.00;99205.56;10472294;28;19935;-77
2021/12/13 02:28:15;;;;;;;76.70;26.58;;;;;;;3.85;100.00;99208.75;10474746;28;20128;-79
2021/12/13 02:33:22;;;;;;;72.93;27.85;;;;;;;3.89;100.00;99215.63;10477454;28;20064;-77
2021/12/13 02:38:28;;;;;;;64.93;26.75;;;;;;;3.93;100.00;99206.47;10478062;28;20063;-80
2021/12/13 02:43:34;;;;;;;59.20;23.98;;;;;;;3.97;100.00;99209.78;10496051;28;20044;-81
2021/12/13 02:48:42;;;;;;;62.70;24.15;;;;;;;4.00;100.00;99210.44;10492335;28;20043;-78
2021/12/13 02:53:50;;;;;;;62.58;24.45;;;;;;;4.04;100.00;99212.91;10473226;28;20906;-79
2021/12/13 02:58:58;;;;;;;60.05;24.13;;;;;;;4.08;100.00;99219.75;10494505;28;20048;-80
2021/12/13 03:04:12;;;;;;;57.17;23.20;;;;;;;4.11;100.00;99219.56;10498076;28;20108;-81
2021/12/13 03:09:20;;;;;;;53.35;23.20;;;;;;;4.14;100.00;99228.19;10497389;28;20476;-81
2021/12/13 03:14:26;;;;;;;61.00;24.23;;;;;;;4.19;100.00;99233.22;10474968;28;20052;-80
2021/12/13 03:19:37;;;;;;;89.32;25.05;;;;;;;4.25;100.00;99231.97;10500377;28;20843;-81
2021/12/13 03:24:52;;;;;;;79.87;26.63;;;;;;;4.29;100.00;99234.31;10478711;28;20055;-81
2021/12/13 03:30:00;;;;;;;775.90;38.15;;;;;;;4.33;100.00;99235.00;10493524;28;20048;-81
2021/12/13 03:35:11;;;;;;;115.90;32.08;;;;;;;4.39;100.00;99234.59;10476633;28;20055;-80
2021/12/13 03:40:19;;;;;;;331.92;38.30;;;;;;;4.46;100.00;99230.56;10475554;28;20116;-81
2021/12/13 03:45:26;;;;;;;992.00;49.35;;;;;;;4.51;100.00;99242.72;10490407;28;20323;-81
2021/12/13 03:50:32;;;;;;;448.77;41.78;;;;;;;4.52;100.00;99239.09;10474348;28;20052;-81
2021/12/13 03:55:39;;;;;;;153.48;37.50;;;;;;;4.54;100.00;99237.19;10475317;28;20487;-80
2021/12/13 04:00:48;;;;;;;502.67;45.00;;;;;;;4.56;100.00;99237.97;10494564;28;20457;-81
2021/12/13 04:05:52;;;;;;;177.90;41.05;;;;;;;4.60;100.00;99242.09;10497297;28;20564;-81
2021/12/13 04:11:01;;;;;;;258.13;41.20;;;;;;;4.63;100.00;99245.47;10471505;28;20068;-80
2021/12/13 04:16:14;;;;;;;422.20;44.88;;;;;;;4.68;100.00;99244.25;10424650;28;20045;-80
2021/12/13 04:21:19;;;;;;;452.05;44.25;;;;;;;4.72;100.00;99254.63;10424383;28;20080;-81
2021/12/13 04:26:27;;;;;;;773.25;48.30;;;;;;;4.76;100.00;99257.97;10445946;28;20346;-80
2021/12/13 04:31:35;;;;;;;1400.90;63.47;;;;;;;4.80;100.00;99263.97;10428428;28;20072;-80
2021/12/13 04:36:42;;;;;;;1702.10;62.60;;;;;;;4.85;100.00;99268.03;10433002;28;20049;-79
2021/12/13 04:41:49;;;;;;;1286.32;57.15;;;;;;;4.88;100.00;99272.28;10425182;28;20065;-80
2021/12/13 04:46:55;;;;;;;482.10;47.88;;;;;;;4.98;100.00;99280.53;10447721;28;20052;-80
2021/12/13 04:52:02;;;;;;;484.08;47.05;;;;;;;5.04;100.00;99278.31;10448944;28;20044;-80
2021/12/13 04:57:07;;;;;;;350.27;46.10;;;;;;;5.09;100.00;99286.00;10449744;28;20120;-80
2021/12/13 05:02:12;;;;;;;198.75;41.22;;;;;;;5.13;100.00;99287.50;10453950;28;20045;-80
2021/12/13 05:07:15;;;;;;;172.45;39.83;;;;;;;5.18;100.00;99289.84;10446618;28;20084;-80
2021/12/13 05:12:25;;;;;;;186.38;42.05;;;;;;;5.20;100.00;99299.47;10495611;28;20071;-79
2021/12/13 05:17:34;;;;;;;159.10;39.28;;;;;;;5.27;100.00;99304.38;10496435;28;20083;-81
2021/12/13 05:22:47;;;;;;;141.80;37.80;;;;;;;5.29;100.00;99302.47;10478158;28;20060;-81
2021/12/13 05:28:00;;;;;;;154.32;38.55;;;;;;;5.27;100.00;99310.59;10482263;28;20115;-79
2021/12/13 05:33:06;;;;;;;155.57;39.30;;;;;;;5.29;100.00;99313.16;10464910;28;20102;-80
2021/12/13 05:38:12;;;;;;;150.70;40.05;;;;;;;5.33;100.00;99314.66;10466305;28;20052;-79
2021/12/13 05:43:24;;;;;;;171.02;41.75;;;;;;;5.30;100.00;99309.53;10482253;28;20048;-80
2021/12/13 05:48:41;;;;;;;161.15;41.00;;;;;;;5.33;100.00;99312.00;10465596;28;20040;-80
2021/12/13 05:53:47;;;;;;;168.38;40.35;;;;;;;5.31;100.00;99319.25;10460911;28;20060;-80
2021/12/13 05:58:55;;;;;;;154.98;40.72;;;;;;;5.36;100.00;99323.31;10467352;28;20071;-80
2021/12/13 06:04:14;;;;;;;156.50;42.25;;;;;;;5.46;100.00;99333.38;10484576;28;20048;-78
2021/12/13 06:09:46;;;;;;;132.95;37.22;;;;;;;5.53;100.00;99329.31;10483665;28;20137;-78
2021/12/13 06:14:51;;;;;;;128.57;37.20;;;;;;;5.56;100.00;99331.78;10460521;28;20146;-79
2021/12/13 06:19:58;;;;;;;103.25;34.20;;;;;;;5.61;100.00;99323.44;10469104;28;20091;-82
2021/12/13 06:25:04;;;;;;;104.00;34.05;;;;;;;5.65;100.00;99332.97;10480027;28;20527;-81
2021/12/13 06:30:12;;;;;;;98.65;34.20;;;;;;;5.65;100.00;99330.28;10466752;28;21110;-81
2021/12/13 06:35:41;;;;;;;91.40;31.00;;;;;;;5.66;100.00;99342.69;10483061;28;20361;-82
2021/12/13 06:40:48;;;;;;;74.05;30.00;;;;;;;5.67;100.00;99349.75;10468139;28;20056;-82
2021/12/13 06:45:53;;;;;;;65.28;28.45;;;;;;;5.68;100.00;99354.13;10487524;28;20039;-81
2021/12/13 06:50:56;;;;;;;70.78;28.50;;;;;;;5.71;100.00;99356.56;10466811;28;20088;-82
2021/12/13 06:55:59;;;;;;;62.65;27.35;;;;;;;5.71;100.00;99357.44;10485536;28;20076;-81
2021/12/13 07:01:07;;;;;;;56.80;26.05;;;;;;;5.76;100.00;99365.16;10504170;28;20112;-83
2021/12/13 07:06:18;;;;;;;55.03;26.45;;;;;;;5.83;100.00;99371.75;10480936;28;20036;-80
2021/12/13 07:11:22;;;;;;;50.10;25.60;;;;;;;5.83;100.00;99377.09;10481215;28;20040;-81
2021/12/13 07:16:33;;;;;;;52.55;27.15;;;;;;;5.90;100.00;99382.03;10487319;28;20032;-82
2021/12/13 07:21:42;;;;;;;53.88;27.15;;;;;;;5.90;100.00;99388.22;10489686;28;20044;-80
2021/12/13 07:26:53;;;;;;;55.13;26.90;;;;;;;5.89;100.00;99393.72;10482783;28;20677;-82
2021/12/13 07:32:08;;;;;;;53.92;26.67;;;;;;;5.89;100.00;99394.53;10493325;28;20040;-82
2021/12/13 07:37:11;;;;;;;43.55;24.17;;;;;;;5.94;100.00;99399.59;10494150;28;20076;-82
2021/12/13 07:42:14;;;;;;;43.90;23.65;;;;;;;5.94;100.00;99405.78;10477374;28;20049;-82
2021/12/13 07:47:23;;;;;;;40.38;23.00;;;;;;;5.97;100.00;99410.06;10497555;28;20489;-82
2021/12/13 07:52:30;;;;;;;41.25;22.63;;;;;;;5.98;100.00;99407.31;10499840;28;20123;-81
2021/12/13 07:57:34;;;;;;;44.75;24.98;;;;;;;5.95;100.00;99412.84;10478096;28;20135;-81
2021/12/13 08:02:38;;;;;;;48.95;25.75;;;;;;;5.97;100.00;99426.09;10472122;28;20129;-81
2021/12/13 08:07:43;;;;;;;55.88;29.13;;;;;;;6.00;100.00;99433.97;10490153;28;20056;-85
2021/12/13 08:12:49;;;;;;;56.38;30.52;;;;;;;6.04;100.00;99438.16;10494801;28;20044;-81
2021/12/13 08:17:55;;;;;;;57.20;30.20;;;;;;;6.09;100.00;99440.50;10489990;28;20072;-82
2021/12/13 08:22:59;;;;;;;57.80;30.50;;;;;;;6.13;100.00;99440.16;10487041;28;20040;-81
2021/12/13 08:28:09;;;;;;;52.58;27.02;;;;;;;6.17;100.00;99444.31;10487603;28;20040;-82
2021/12/13 08:33:17;;;;;;;44.72;24.88;;;;;;;6.21;100.00;99439.63;10470555;28;20059;-82
2021/12/13 08:38:35;;;;;;;43.90;23.45;;;;;;;6.27;100.00;99452.56;10466718;28;20075;-83
2021/12/13 08:43:41;;;;;;;42.47;23.92;;;;;;;6.31;100.00;99450.53;10479197;28;20071;-83
2021/12/13 08:48:51;;;;;;;42.90;23.15;;;;;;;6.37;100.00;99450.09;10487896;28;20097;-80
2021/12/13 08:54:06;;;;;;;32.22;19.67;;;;;;;6.42;100.00;99450.63;10484555;28;20049;-80
2021/12/13 08:59:20;;;;;;;25.85;16.70;;;;;;;6.47;100.00;99459.19;10485575;28;20149;-79
2021/12/13 09:04:28;;;;;;;28.88;16.58;;;;;;;6.50;100.00;99459.94;10472574;28;20071;-80
2021/12/13 09:09:33;;;;;;;27.55;17.98;;;;;;;6.49;100.00;99464.41;10485558;28;20134;-82
2021/12/13 09:14:40;;;;;;;29.30;17.45;;;;;;;6.52;100.00;99474.09;10469448;28;20072;-82
2021/12/13 09:19:54;;;;;;;28.08;17.90;;;;;;;6.50;100.00;99478.69;10470791;28;20485;-82
2021/12/13 09:25:00;;;;;;;27.55;17.23;;;;;;;6.48;100.00;99476.97;10468158;28;20140;-81
2021/12/13 09:30:18;;;;;;;28.90;17.00;;;;;;;6.48;100.00;99479.66;10485446;28;20527;-82
2021/12/13 09:35:31;;;;;;;29.48;17.45;;;;;;;6.49;100.00;99475.13;10469480;28;20059;-80
2021/12/13 09:40:39;;;;;;;28.23;17.08;;;;;;;6.53;100.00;99482.00;10486804;28;20048;-81
2021/12/13 09:45:47;;;;;;;28.40;17.70;;;;;;;6.53;100.00;99478.44;10484665;28;20143;-79
2021/12/13 09:50:56;;;;;;;31.98;18.00;;;;;;;6.52;100.00;99482.13;10468978;28;20044;-78
2021/12/13 09:56:01;;;;;;;29.25;17.30;;;;;;;6.55;100.00;99474.72;10502476;28;20060;-79
2021/12/13 10:01:11;;;;;;;38.17;19.23;;;;;;;6.56;100.00;99470.19;10461894;28;20053;-80
2021/12/13 10:06:22;;;;;;;38.10;20.45;;;;;;;6.61;100.00;99473.41;10483997;28;20047;-81
2021/12/13 10:11:28;;;;;;;34.72;19.05;;;;;;;6.65;100.00;99468.69;10478450;28;20155;-82
2021/12/13 10:16:34;;;;;;;33.97;19.08;;;;;;;6.70;100.00;99478.09;10471658;28;20523;-78
2021/12/13 10:21:41;;;;;;;40.03;20.10;;;;;;;6.76;100.00;99474.97;10482745;28;20100;-80
2021/12/13 10:26:47;;;;;;;46.90;21.85;;;;;;;6.79;100.00;99466.72;10479051;28;20036;-81
2021/12/13 10:32:14;;;;;;;43.22;19.60;;;;;;;6.83;100.00;99472.69;10483835;28;20044;-80
2021/12/13 10:37:22;;;;;;;42.33;20.63;;;;;;;6.89;100.00;99471.41;10477937;28;20053;-78
2021/12/13 10:42:33;;;;;;;43.08;22.25;;;;;;;6.90;100.00;99473.13;10480835;28;20132;-80
2021/12/13 10:47:41;;;;;;;34.93;19.80;;;;;;;6.94;100.00;99466.56;10478718;28;20132;-78
2021/12/13 10:52:51;;;;;;;37.40;20.35;;;;;;;6.99;100.00;99464.44;10479229;28;20045;-80
2021/12/13 10:57:55;;;;;;;36.50;20.17;;;;;;;7.02;100.00;99466.03;10481242;28;20036;-81
2021/12/13 11:03:05;;;;;;;34.83;19.70;;;;;;;7.07;100.00;99458.47;10482953;28;20142;-81
2021/12/13 11:08:14;;;;;;;28.40;16.83;;;;;;;7.11;100.00;99469.84;10488949;28;20131;-80
2021/12/13 11:13:19;;;;;;;28.73;16.95;;;;;;;7.11;100.00;99473.38;10471466;28;20402;-81
2021/12/13 11:18:28;;;;;;;27.13;16.33;;;;;;;7.16;100.00;99473.03;10490058;28;20044;-82
2021/12/13 11:23:32;;;;;;;25.00;15.20;;;;;;;7.20;100.00;99469.16;10484523;28;20044;-80
2021/12/13 11:28:36;;;;;;;26.67;15.73;;;;;;;7.17;100.00;99464.03;10468718;28;20052;-79
2021/12/13 11:34:18;;;;;;;30.58;17.52;;;;;;;7.19;100.00;99467.44;10491504;28;20108;-79
2021/12/13 11:39:59;;;;;;;32.28;18.58;;;;;;;7.19;100.00;99462.09;10470998;28;20164;-80
2021/12/13 11:45:38;;;;;;;35.40;20.30;;;;;;;7.22;100.00;99460.03;10488717;28;20136;-79
2021/12/13 11:51:05;;;;;;;41.00;21.08;;;;;;;7.26;100.00;99466.00;10487976;28;20048;-79
2021/12/13 11:56:35;;;;;;;41.85;21.45;;;;;;;7.32;100.00;99465.56;10484168;28;20500;-79
2021/12/13 12:02:01;;;;;;;34.33;20.05;;;;;;;7.33;100.00;99464.59;10489381;28;20072;-79
2021/12/13 12:07:40;;;;;;;34.25;20.27;;;;;;;7.37;100.00;99468.75;10490366;28;20028;-79
2021/12/13 12:12:58;;;;;;;29.38;18.48;;;;;;;7.40;100.00;99465.00;10484710;28;20051;-80
2021/12/13 12:18:06;;;;;;;22.77;15.25;;;;;;;7.42;100.00;99471.06;10492310;28;20075;-80
2021/12/13 12:23:11;;;;;;;16.85;12.45;;;;;;;7.40;100.00;99465.84;10479405;28;20055;-79
2021/12/13 12:28:18;;;;;;;20.08;13.45;;;;;;;7.45;100.00;99462.81;10487244;28;20071;-79
2021/12/13 12:33:34;;;;;;;15.70;12.75;;;;;;;7.45;100.00;99445.88;10488669;28;20037;-80
2021/12/13 12:39:39;;;;;;;19.33;14.10;;;;;;;7.50;100.00;99444.56;10494144;28;20096;-79
2021/12/13 12:45:01;;;;;;;19.25;12.80;;;;;;;7.49;100.00;99447.34;10494578;28;20041;-80
2021/12/13 12:50:14;;;;;;;19.50;13.63;;;;;;;7.51;100.00;99432.00;10489570;28;20044;-81
2021/12/13 12:55:20;;;;;;;16.40;12.90;;;;;;;7.50;100.00;99435.66;10503795;28;20102;-78
2021/12/13 13:00:27;;;;;;;18.65;13.38;;;;;;;7.54;100.00;99429.09;10478237;28;20448;-78
2021/12/13 13:05:34;;;;;;;17.73;13.05;;;;;;;7.50;100.00;99435.66;10480044;28;20045;-77
2021/12/13 13:15:56;;;;;;;17.60;12.68;;;;;;;7.46;100.00;99431.50;10471073;28;20056;-79
2021/12/13 13:21:03;;;;;;;16.88;12.30;;;;;;;7.48;100.00;99434.91;10445289;28;20063;-78
2021/12/13 13:26:07;;;;;;;15.45;11.32;;;;;;;7.45;100.00;99429.78;10469806;28;20583;-80
2021/12/13 13:31:18;;;;;;;12.85;10.23;;;;;;;7.42;100.00;99435.38;10449854;28;20483;-78
2021/12/13 13:36:28;;;;;;;13.90;10.32;;;;;;;7.44;100.00;99441.50;10446797;28;20048;-76
2021/12/13 13:41:36;;;;;;;13.00;9.57;;;;;;;7.45;100.00;99440.53;10467642;28;20048;-77
2021/12/13 13:46:42;;;;;;;15.82;10.77;;;;;;;7.46;100.00;99442.22;10448760;28;20135;-77
2021/12/13 13:51:46;;;;;;;15.05;10.85;;;;;;;7.45;100.00;99443.19;10464230;28;20045;-78
2021/12/13 13:56:50;;;;;;;17.13;11.43;;;;;;;7.48;100.00;99451.00;10465216;28;20105;-77
2021/12/13 14:01:58;;;;;;;17.60;11.73;;;;;;;7.47;100.00;99454.63;10468798;28;20044;-77
2021/12/13 14:07:06;;;;;;;15.88;10.73;;;;;;;7.46;100.00;99453.81;10464491;28;20497;-76
2021/12/13 14:12:13;;;;;;;15.88;11.30;;;;;;;7.46;100.00;99469.06;10474059;28;20037;-79
2021/12/13 14:17:35;;;;;;;17.33;11.65;;;;;;;7.42;100.00;99462.19;10479725;28;20501;-81
2021/12/13 14:22:38;;;;;;;13.52;9.88;;;;;;;7.39;100.00;99466.81;10479857;28;20079;-80
2021/12/13 14:27:46;;;;;;;11.93;9.75;;;;;;;7.41;100.00;99474.72;10459108;28;20044;-79
2021/12/13 14:33:21;;;;;;;15.23;10.73;;;;;;;7.42;100.00;99472.91;10457953;28;20493;-78
2021/12/13 14:38:28;;;;;;;14.68;11.25;;;;;;;7.38;100.00;99472.31;10478587;28;20564;-78
2021/12/13 14:43:35;;;;;;;16.17;10.20;;;;;;;7.35;100.00;99476.03;10471104;28;20048;-79
2021/12/13 14:48:41;;;;;;;13.32;9.63;;;;;;;7.30;100.00;99480.91;10481298;28;20040;-80
2021/12/13 14:53:46;;;;;;;16.58;11.52;;;;;;;7.27;100.00;99486.50;10485412;28;20079;-78
2021/12/13 14:58:53;;;;;;;16.50;12.75;;;;;;;7.28;100.00;99480.16;10477550;28;20049;-77
2021/12/13 15:04:05;;;;;;;14.57;11.63;;;;;;;7.25;100.00;99488.44;10480367;28;20041;-76
2021/12/13 15:09:14;;;;;;;12.80;10.52;;;;;;;7.22;100.00;99489.50;10464314;28;20049;-79
2021/12/13 15:14:25;;;;;;;15.63;11.40;;;;;;;7.20;100.00;99496.81;10473608;28;20048;-80
2021/12/13 15:19:33;;;;;;;14.00;10.40;;;;;;;7.17;100.00;99501.53;10479666;28;20116;-78
2021/12/13 15:24:38;;;;;;;16.05;11.10;;;;;;;7.19;100.00;99504.97;10474782;28;20072;-77
2021/12/13 15:29:42;;;;;;;15.35;11.65;;;;;;;7.13;100.00;99508.97;10451455;28;20052;-76
2021/12/13 15:34:52;;;;;;;13.75;9.45;;;;;;;7.06;100.00;99510.34;10478778;28;21319;-77
2021/12/13 15:40:16;;;;;;;11.80;8.68;;;;;;;7.03;100.00;99511.44;10473143;28;20052;-78
2021/12/13 15:45:24;;;;;;;10.23;7.95;;;;;;;7.02;100.00;99515.09;10458543;28;20056;-77
2021/12/13 15:50:33;;;;;;;9.23;7.25;;;;;;;6.99;100.00;99515.34;10497651;28;20076;-77
2021/12/13 15:55:40;;;;;;;8.93;6.88;;;;;;;7.01;100.00;99509.84;10475934;28;20123;-77
2021/12/13 16:00:44;;;;;;;8.50;6.22;;;;;;;7.01;100.00;99510.69;10474321;28;20535;-77
2021/12/13 16:05:49;;;;;;;9.02;6.72;;;;;;;7.01;100.00;99518.72;10467683;28;20041;-77
2021/12/13 16:10:53;;;;;;;7.90;6.35;;;;;;;7.01;100.00;99524.09;10478389;28;20057;-78
2021/12/13 16:15:56;;;;;;;9.52;6.15;;;;;;;7.01;100.00;99521.41;10479840;28;20070;-78
2021/12/13 16:21:01;;;;;;;11.75;7.38;;;;;;;7.03;100.00;99522.16;10469636;28;20135;-77
2021/12/13 16:26:10;;;;;;;8.95;6.75;;;;;;;7.00;100.00;99514.34;10455021;28;20132;-78
2021/12/13 16:31:17;;;;;;;9.80;7.28;;;;;;;6.97;100.00;99525.31;10478877;28;20128;-78
2021/12/13 16:36:26;;;;;;;11.63;8.38;;;;;;;6.97;100.00;99524.44;10480654;28;20582;-79
2021/12/13 16:41:31;;;;;;;14.05;10.15;;;;;;;6.96;100.00;99526.28;10482732;28;20123;-77
2021/12/13 16:46:34;;;;;;;14.77;10.00;;;;;;;6.96;100.00;99531.63;10486633;28;20444;-79
2021/12/13 16:51:45;;;;;;;17.20;10.82;;;;;;;6.97;100.00;99538.69;10486318;28;20072;-77
2021/12/13 16:56:50;;;;;;;14.00;9.85;;;;;;;6.97;100.00;99533.34;10454823;28;20167;-77
2021/12/13 17:01:55;;;;;;;16.90;11.38;;;;;;;6.98;100.00;99536.88;10476452;28;20048;-76
2021/12/13 17:07:04;;;;;;;19.27;12.43;;;;;;;6.99;100.00;99547.50;10482125;28;20386;-77
2021/12/13 17:12:12;;;;;;;19.17;15.57;;;;;;;6.99;100.00;99546.63;10464203;28;20596;-80
2021/12/13 17:17:18;;;;;;;21.20;15.57;;;;;;;6.99;100.00;99536.78;10475714;28;20115;-82
2021/12/13 17:22:23;;;;;;;17.02;11.30;;;;;;;6.98;100.00;99551.13;10457482;28;20056;-83
2021/12/13 17:27:28;;;;;;;16.20;11.45;;;;;;;6.99;100.00;99542.13;10465335;28;20059;-81
2021/12/13 17:32:35;;;;;;;18.95;12.32;;;;;;;6.98;100.00;99545.78;10482941;28;20053;-82
2021/12/13 17:37:43;;;;;;;16.45;12.48;;;;;;;6.98;100.00;99548.44;10463632;28;20044;-82
2021/12/13 17:42:49;;;;;;;19.73;13.80;;;;;;;6.96;100.00;99545.03;10458879;28;20052;-81
2021/12/13 17:47:55;;;;;;;18.52;14.02;;;;;;;6.97;100.00;99543.19;10485165;28;20068;-77
2021/12/13 17:53:04;;;;;;;19.27;13.50;;;;;;;6.94;100.00;99536.22;10494709;28;20048;-79
2021/12/13 17:58:16;;;;;;;18.92;13.18;;;;;;;6.92;100.00;99536.34;10484435;28;20143;-79
2021/12/13 18:03:35;;;;;;;17.98;12.75;;;;;;;6.90;100.00;99543.63;10489378;28;20413;-79
2021/12/13 18:09:17;;;;;;;19.17;13.88;;;;;;;6.86;100.00;99542.13;10486537;28;20041;-77
2021/12/13 18:14:27;;;;;;;20.13;13.68;;;;;;;6.84;100.00;99549.41;10487725;28;20069;-77
2021/12/13 18:19:38;;;;;;;23.55;13.90;;;;;;;6.82;100.00;99543.31;10492534;28;20053;-77
2021/12/13 18:24:42;;;;;;;20.98;13.88;;;;;;;6.83;100.00;99547.72;10463075;28;20143;-78
2021/12/13 18:29:46;;;;;;;16.38;12.25;;;;;;;6.90;100.00;99558.84;10483993;28;20043;-78
2021/12/13 18:34:49;;;;;;;18.30;12.82;;;;;;;6.94;100.00;99565.69;10471162;28;20036;-78
2021/12/13 18:39:56;;;;;;;15.52;12.13;;;;;;;6.94;100.00;99565.69;10482890;28;20218;-76
2021/12/13 18:45:07;;;;;;;18.38;13.52;;;;;;;6.95;100.00;99562.06;10472035;28;20057;-77
2021/12/13 18:50:15;;;;;;;16.33;12.73;;;;;;;6.94;100.00;99555.84;10495893;28;20040;-77
2021/12/13 18:55:23;;;;;;;20.33;14.45;;;;;;;6.92;100.00;99556.91;10469993;28;20580;-78
2021/12/13 19:00:34;;;;;;;18.25;13.50;;;;;;;6.87;100.00;99557.25;10478978;28;20043;-81
2021/12/13 19:05:40;;;;;;;17.47;12.93;;;;;;;6.84;100.00;99556.63;10477716;28;20041;-80
2021/12/13 19:10:49;;;;;;;16.95;12.80;;;;;;;6.75;100.00;99550.97;10479893;28;20575;-80
2021/12/13 19:15:54;;;;;;;17.05;11.82;;;;;;;6.76;100.00;99551.81;10483014;28;20115;-81
2021/12/13 19:21:03;;;;;;;17.65;11.57;;;;;;;6.74;100.00;99537.66;10483858;28;20049;-83
2021/12/13 19:26:13;;;;;;;16.05;11.85;;;;;;;6.73;100.00;99542.16;10475702;28;20155;-83
2021/12/13 19:31:21;;;;;;;15.98;11.50;;;;;;;6.70;100.00;99539.69;10484228;28;20048;-80
2021/12/13 19:36:28;;;;;;;15.80;10.73;;;;;;;6.69;100.00;99537.97;10491916;28;20037;-79
2021/12/13 19:41:40;;;;;;;15.18;10.68;;;;;;;6.68;100.00;99538.09;10490864;28;20083;-80
2021/12/13 19:46:58;;;;;;;19.55;13.27;;;;;;;6.65;100.00;99536.47;10465369;28;20049;-79
2021/12/13 19:52:08;;;;;;;19.10;12.90;;;;;;;6.64;100.00;99532.13;10485400;28;20056;-76
2021/12/13 19:57:18;;;;;;;21.23;14.95;;;;;;;6.63;100.00;99535.75;10482801;28;20043;-76
2021/12/13 20:02:32;;;;;;;20.45;13.80;;;;;;;6.60;100.00;99535.97;10479737;28;20732;-76
2021/12/13 20:07:38;;;;;;;17.73;13.02;;;;;;;6.60;100.00;99538.66;10479475;28;20041;-75
2021/12/13 20:12:54;;;;;;;17.02;12.65;;;;;;;6.60;100.00;99541.31;10480748;28;20146;-76
2021/12/13 20:18:05;;;;;;;17.30;12.73;;;;;;;6.57;100.00;99526.34;10479157;28;20420;-75
2021/12/13 20:23:16;;;;;;;17.88;13.10;;;;;;;6.56;100.00;99521.94;10477886;28;20028;-76
2021/12/13 20:28:27;;;;;;;16.00;11.70;;;;;;;6.55;100.00;99527.38;10481710;28;20037;-76
2021/12/13 20:33:36;;;;;;;15.20;11.38;;;;;;;6.51;100.00;99526.75;10477620;28;20207;-77
2021/12/13 20:38:43;;;;;;;16.63;12.18;;;;;;;6.48;100.00;99535.88;10460370;28;20039;-77
2021/12/13 20:43:54;;;;;;;16.73;11.32;;;;;;;6.48;100.00;99538.53;10458105;28;20402;-77
2021/12/13 20:49:01;;;;;;;17.17;12.23;;;;;;;6.46;100.00;99535.13;10476834;28;20123;-77
2021/12/13 20:54:05;;;;;;;15.65;11.57;;;;;;;6.46;100.00;99539.63;10481055;28;20477;-77
2021/12/13 20:59:14;;;;;;;15.90;11.45;;;;;;;6.45;100.00;99527.19;10476500;28;20401;-78
2021/12/13 21:04:21;;;;;;;16.98;12.02;;;;;;;6.43;100.00;99538.00;10484067;28;20048;-77
2021/12/13 21:09:30;;;;;;;17.05;12.43;;;;;;;6.42;100.00;99535.44;10485188;28;20080;-77
2021/12/13 21:14:39;;;;;;;16.05;12.07;;;;;;;6.40;100.00;99532.00;10479276;28;20054;-78
2021/12/13 21:19:51;;;;;;;16.13;12.18;;;;;;;6.40;100.00;99532.00;10490651;28;20123;-77
2021/12/13 21:24:57;;;;;;;20.90;12.88;;;;;;;6.39;100.00;99536.50;10481343;28;20091;-77
2021/12/13 21:30:09;;;;;;;18.45;12.80;;;;;;;6.38;100.00;99532.13;10481551;28;20420;-77
2021/12/13 21:35:27;;;;;;;16.33;12.30;;;;;;;6.37;100.00;99517.03;10490516;28;20056;-77
2021/12/13 21:40:35;;;;;;;16.38;12.32;;;;;;;6.38;100.00;99524.09;10476689;28;20047;-77
2021/12/13 21:45:43;;;;;;;16.65;11.65;;;;;;;6.38;100.00;99517.88;10484525;28;20036;-78
2021/12/13 21:50:49;;;;;;;17.65;12.50;;;;;;;6.36;100.00;99526.00;10475952;28;20639;-76
2021/12/13 21:55:59;;;;;;;16.63;12.00;;;;;;;6.34;100.00;99525.25;10457193;28;20183;-74
2021/12/13 22:01:24;;;;;;;15.88;12.07;;;;;;;6.34;100.00;99511.03;10452681;28;20034;-77
2021/12/13 22:06:29;;;;;;;17.58;12.63;;;;;;;6.30;100.00;99508.56;10452590;28;20040;-76
2021/12/13 22:11:38;;;;;;;18.33;12.73;;;;;;;6.29;100.00;99508.69;10466017;28;20048;-76
2021/12/13 22:16:47;;;;;;;17.00;13.00;;;;;;;6.26;100.00;99512.41;10471051;28;20036;-76
2021/12/13 22:21:54;;;;;;;17.75;13.25;;;;;;;6.26;100.00;99514.25;10468451;28;20040;-75
2021/12/13 22:27:01;;;;;;;18.00;13.05;;;;;;;6.26;100.00;99508.88;10474255;28;20049;-77
2021/12/13 22:32:09;;;;;;;19.02;13.38;;;;;;;6.25;100.00;99509.84;10469375;28;20528;-76
2021/12/13 22:37:22;;;;;;;19.48;14.15;;;;;;;6.27;100.00;99515.97;10471405;28;20043;-76
2021/12/13 22:42:26;;;;;;;19.17;13.93;;;;;;;6.25;100.00;99510.69;10472364;28;20052;-75
2021/12/13 22:47:33;;;;;;;20.75;14.15;;;;;;;6.24;100.00;99511.66;10470250;28;20086;-78
2021/12/13 22:52:43;;;;;;;19.73;15.32;;;;;;;6.23;100.00;99518.00;10471025;28;20044;-77
2021/12/13 22:57:48;;;;;;;24.65;17.05;;;;;;;6.20;100.00;99514.66;10471002;28;20127;-76
2021/12/13 23:02:53;;;;;;;23.95;16.38;;;;;;;6.23;100.00;99517.13;10475724;28;20047;-78
2021/12/13 23:07:58;;;;;;;25.55;18.08;;;;;;;6.19;100.00;99510.25;10476659;28;20052;-78
2021/12/13 23:18:31;;;;;;;29.48;18.90;;;;;;;6.16;100.00;99503.31;10479669;28;20052;-77
2021/12/13 23:23:34;;;;;;;26.60;18.67;;;;;;;6.14;100.00;99505.22;10482412;28;20123;-77
2021/12/13 23:28:41;;;;;;;25.10;19.05;;;;;;;6.10;100.00;99501.91;10477587;28;20048;-78
2021/12/13 23:33:47;;;;;;;24.55;18.00;;;;;;;6.09;100.00;99488.66;10480608;28;20158;-77
2021/12/13 23:49:46;;;;;;;27.90;16.58;;;;;;;6.08;100.00;99486.94;10465204;28;20182;-75
2021/12/13 23:54:54;;;;;;;23.88;16.63;;;;;;;6.06;100.00;99489.69;10471812;28;20053;-77
